sensor_id;sensor_type;location;lat;lon;timestamp;P1;durP1;ratioP1;P2;durP2;ratioP2
36191;SDS011;22233;42.708;23.360;2023-02-08T00:01:50;13.55;;;8.18;;
36191;SDS011;22233;42.708;23.360;2023-02-08T00:04:15;13.60;;;8.40;;
36191;SDS011;22233;42.708;23.360;2023-02-08T00:06:40;15.77;;;8.82;;
36191;SDS011;22233;42.708;23.360;2023-02-08T00:09:06;13.02;;;7.38;;
36191;SDS011;22233;42.708;23.360;2023-02-08T00:11:32;13.45;;;7.40;;
36191;SDS011;22233;42.708;23.360;2023-02-08T00:13:58;13.85;;;8.43;;
36191;SDS011;22233;42.708;23.360;2023-02-08T00:16:23;14.00;;;7.75;;
36191;SDS011;22233;42.708;23.360;2023-02-08T00:18:49;14.90;;;8.07;;
36191;SDS011;22233;42.708;23.360;2023-02-08T00:21:15;14.63;;;8.32;;
36191;SDS011;22233;42.708;23.360;2023-02-08T00:23:41;15.15;;;7.97;;
36191;SDS011;22233;42.708;23.360;2023-02-08T00:26:07;17.50;;;8.80;;
36191;SDS011;22233;42.708;23.360;2023-02-08T00:28:33;13.68;;;7.68;;
36191;SDS011;22233;42.708;23.360;2023-02-08T00:30:58;15.90;;;8.20;;
36191;SDS011;22233;42.708;23.360;2023-02-08T00:33:24;14.52;;;7.90;;
36191;SDS011;22233;42.708;23.360;2023-02-08T00:35:49;14.30;;;7.80;;
36191;SDS011;22233;42.708;23.360;2023-02-08T00:38:15;13.68;;;8.15;;
36191;SDS011;22233;42.708;23.360;2023-02-08T00:40:40;14.18;;;8.15;;
36191;SDS011;22233;42.708;23.360;2023-02-08T00:43:06;12.20;;;8.18;;
36191;SDS011;22233;42.708;23.360;2023-02-08T00:45:31;17.27;;;9.05;;
36191;SDS011;22233;42.708;23.360;2023-02-08T00:47:57;14.40;;;8.13;;
36191;SDS011;22233;42.708;23.360;2023-02-08T00:50:23;17.70;;;8.80;;
36191;SDS011;22233;42.708;23.360;2023-02-08T00:52:48;18.05;;;9.23;;
36191;SDS011;22233;42.708;23.360;2023-02-08T00:55:13;19.95;;;10.35;;
36191;SDS011;22233;42.708;23.360;2023-02-08T00:57:39;16.08;;;8.77;;
36191;SDS011;22233;42.708;23.360;2023-02-08T01:00:05;15.35;;;9.57;;
36191;SDS011;22233;42.708;23.360;2023-02-08T01:02:31;20.25;;;9.70;;
36191;SDS011;22233;42.708;23.360;2023-02-08T01:04:56;17.40;;;9.90;;
36191;SDS011;22233;42.708;23.360;2023-02-08T01:07:22;16.95;;;9.05;;
36191;SDS011;22233;42.708;23.360;2023-02-08T01:09:47;17.63;;;9.60;;
36191;SDS011;22233;42.708;23.360;2023-02-08T01:12:12;20.77;;;10.38;;
36191;SDS011;22233;42.708;23.360;2023-02-08T01:14:38;18.48;;;10.25;;
36191;SDS011;22233;42.708;23.360;2023-02-08T01:17:04;18.98;;;10.60;;
36191;SDS011;22233;42.708;23.360;2023-02-08T01:19:29;20.60;;;10.15;;
36191;SDS011;22233;42.708;23.360;2023-02-08T01:21:55;16.90;;;9.30;;
36191;SDS011;22233;42.708;23.360;2023-02-08T01:24:20;18.45;;;10.45;;
36191;SDS011;22233;42.708;23.360;2023-02-08T01:26:46;17.00;;;10.07;;
36191;SDS011;22233;42.708;23.360;2023-02-08T01:29:11;18.90;;;9.50;;
36191;SDS011;22233;42.708;23.360;2023-02-08T01:31:37;17.58;;;10.10;;
36191;SDS011;22233;42.708;23.360;2023-02-08T01:36:31;16.63;;;8.80;;
36191;SDS011;22233;42.708;23.360;2023-02-08T01:38:57;17.88;;;8.77;;
36191;SDS011;22233;42.708;23.360;2023-02-08T01:41:24;19.08;;;9.43;;
36191;SDS011;22233;42.708;23.360;2023-02-08T01:46:42;16.55;;;8.50;;
36191;SDS011;22233;42.708;23.360;2023-02-08T01:51:42;17.75;;;9.15;;
36191;SDS011;22233;42.708;23.360;2023-02-08T01:54:12;18.70;;;9.25;;
36191;SDS011;22233;42.708;23.360;2023-02-08T01:56:41;19.17;;;9.73;;
36191;SDS011;22233;42.708;23.360;2023-02-08T01:59:11;20.00;;;9.57;;
36191;SDS011;22233;42.708;23.360;2023-02-08T02:01:42;18.23;;;9.82;;
36191;SDS011;22233;42.708;23.360;2023-02-08T02:04:13;15.70;;;9.00;;
36191;SDS011;22233;42.708;23.360;2023-02-08T02:06:40;15.90;;;8.70;;
36191;SDS011;22233;42.708;23.360;2023-02-08T02:11:44;16.55;;;8.60;;
36191;SDS011;22233;42.708;23.360;2023-02-08T02:14:09;16.42;;;9.30;;
36191;SDS011;22233;42.708;23.360;2023-02-08T02:16:36;15.43;;;9.52;;
36191;SDS011;22233;42.708;23.360;2023-02-08T02:19:01;16.17;;;8.68;;
36191;SDS011;22233;42.708;23.360;2023-02-08T02:21:42;15.02;;;7.50;;
36191;SDS011;22233;42.708;23.360;2023-02-08T02:24:21;15.02;;;8.23;;
36191;SDS011;22233;42.708;23.360;2023-02-08T02:32:34;14.57;;;9.02;;
36191;SDS011;22233;42.708;23.360;2023-02-08T02:43:13;12.93;;;7.85;;
36191;SDS011;22233;42.708;23.360;2023-02-08T02:46:04;14.63;;;8.00;;
36191;SDS011;22233;42.708;23.360;2023-02-08T02:51:13;19.83;;;8.13;;
36191;SDS011;22233;42.708;23.360;2023-02-08T02:54:12;17.98;;;8.75;;
36191;SDS011;22233;42.708;23.360;2023-02-08T02:56:39;14.05;;;7.88;;
36191;SDS011;22233;42.708;23.360;2023-02-08T02:59:08;13.65;;;6.97;;
36191;SDS011;22233;42.708;23.360;2023-02-08T03:01:35;16.83;;;8.30;;
36191;SDS011;22233;42.708;23.360;2023-02-08T03:04:11;16.38;;;8.20;;
36191;SDS011;22233;42.708;23.360;2023-02-08T03:20:30;17.13;;;8.68;;
36191;SDS011;22233;42.708;23.360;2023-02-08T03:34:28;15.75;;;9.20;;
36191;SDS011;22233;42.708;23.360;2023-02-08T03:37:08;24.38;;;11.45;;
36191;SDS011;22233;42.708;23.360;2023-02-08T03:39:38;17.02;;;8.77;;
36191;SDS011;22233;42.708;23.360;2023-02-08T03:42:11;20.90;;;11.18;;
36191;SDS011;22233;42.708;23.360;2023-02-08T03:44:43;19.08;;;10.80;;
36191;SDS011;22233;42.708;23.360;2023-02-08T03:47:17;17.63;;;9.82;;
36191;SDS011;22233;42.708;23.360;2023-02-08T03:49:49;17.70;;;9.15;;
36191;SDS011;22233;42.708;23.360;2023-02-08T03:52:17;18.38;;;9.57;;
36191;SDS011;22233;42.708;23.360;2023-02-08T04:00:51;15.75;;;8.73;;
36191;SDS011;22233;42.708;23.360;2023-02-08T04:03:25;12.63;;;7.82;;
36191;SDS011;22233;42.708;23.360;2023-02-08T04:05:53;17.98;;;8.82;;
36191;SDS011;22233;42.708;23.360;2023-02-08T04:08:19;21.13;;;10.88;;
36191;SDS011;22233;42.708;23.360;2023-02-08T04:10:45;15.70;;;8.50;;
36191;SDS011;22233;42.708;23.360;2023-02-08T04:13:11;15.57;;;7.20;;
36191;SDS011;22233;42.708;23.360;2023-02-08T04:15:37;10.95;;;6.72;;
36191;SDS011;22233;42.708;23.360;2023-02-08T04:18:02;13.18;;;7.30;;
36191;SDS011;22233;42.708;23.360;2023-02-08T04:20:28;13.55;;;6.60;;
36191;SDS011;22233;42.708;23.360;2023-02-08T04:22:53;13.43;;;7.57;;
36191;SDS011;22233;42.708;23.360;2023-02-08T04:25:18;13.82;;;7.05;;
36191;SDS011;22233;42.708;23.360;2023-02-08T04:27:44;13.02;;;6.53;;
36191;SDS011;22233;42.708;23.360;2023-02-08T04:30:09;15.40;;;7.13;;
36191;SDS011;22233;42.708;23.360;2023-02-08T04:32:36;14.85;;;6.72;;
36191;SDS011;22233;42.708;23.360;2023-02-08T04:35:01;12.75;;;6.22;;
36191;SDS011;22233;42.708;23.360;2023-02-08T04:37:27;13.07;;;6.80;;
36191;SDS011;22233;42.708;23.360;2023-02-08T04:39:52;11.90;;;6.05;;
36191;SDS011;22233;42.708;23.360;2023-02-08T04:42:17;12.35;;;7.50;;
36191;SDS011;22233;42.708;23.360;2023-02-08T04:44:43;16.60;;;8.57;;
36191;SDS011;22233;42.708;23.360;2023-02-08T04:47:08;16.92;;;9.40;;
36191;SDS011;22233;42.708;23.360;2023-02-08T04:49:34;15.55;;;8.00;;
36191;SDS011;22233;42.708;23.360;2023-02-08T04:51:59;14.25;;;8.48;;
36191;SDS011;22233;42.708;23.360;2023-02-08T04:54:24;11.23;;;7.85;;
36191;SDS011;22233;42.708;23.360;2023-02-08T04:56:50;19.30;;;9.50;;
36191;SDS011;22233;42.708;23.360;2023-02-08T04:59:16;16.48;;;9.25;;
36191;SDS011;22233;42.708;23.360;2023-02-08T05:01:42;25.65;;;11.70;;
36191;SDS011;22233;42.708;23.360;2023-02-08T05:04:08;31.40;;;15.57;;
36191;SDS011;22233;42.708;23.360;2023-02-08T05:06:33;17.98;;;11.68;;
36191;SDS011;22233;42.708;23.360;2023-02-08T05:08:59;19.50;;;10.85;;
36191;SDS011;22233;42.708;23.360;2023-02-08T05:11:24;20.60;;;11.18;;
36191;SDS011;22233;42.708;23.360;2023-02-08T05:13:51;20.83;;;12.48;;
36191;SDS011;22233;42.708;23.360;2023-02-08T05:16:17;22.08;;;11.25;;
36191;SDS011;22233;42.708;23.360;2023-02-08T05:18:43;20.92;;;11.18;;
36191;SDS011;22233;42.708;23.360;2023-02-08T05:21:08;22.52;;;11.82;;
36191;SDS011;22233;42.708;23.360;2023-02-08T05:23:33;21.60;;;11.23;;
36191;SDS011;22233;42.708;23.360;2023-02-08T05:25:59;17.17;;;9.68;;
36191;SDS011;22233;42.708;23.360;2023-02-08T05:28:29;22.20;;;11.85;;
36191;SDS011;22233;42.708;23.360;2023-02-08T05:30:54;23.10;;;12.40;;
36191;SDS011;22233;42.708;23.360;2023-02-08T05:33:19;43.90;;;19.48;;
36191;SDS011;22233;42.708;23.360;2023-02-08T05:35:45;26.10;;;14.50;;
36191;SDS011;22233;42.708;23.360;2023-02-08T05:38:10;21.40;;;13.43;;
36191;SDS011;22233;42.708;23.360;2023-02-08T05:40:36;30.45;;;15.75;;
36191;SDS011;22233;42.708;23.360;2023-02-08T05:43:01;35.08;;;17.75;;
36191;SDS011;22233;42.708;23.360;2023-02-08T05:45:27;31.42;;;17.90;;
36191;SDS011;22233;42.708;23.360;2023-02-08T05:47:52;35.83;;;18.10;;
36191;SDS011;22233;42.708;23.360;2023-02-08T05:50:17;31.02;;;15.07;;
36191;SDS011;22233;42.708;23.360;2023-02-08T05:52:43;28.73;;;16.48;;
36191;SDS011;22233;42.708;23.360;2023-02-08T05:55:08;24.20;;;13.27;;
36191;SDS011;22233;42.708;23.360;2023-02-08T05:57:34;27.83;;;15.32;;
36191;SDS011;22233;42.708;23.360;2023-02-08T05:59:59;29.80;;;15.70;;
36191;SDS011;22233;42.708;23.360;2023-02-08T06:02:24;33.78;;;17.00;;
36191;SDS011;22233;42.708;23.360;2023-02-08T06:04:50;27.45;;;15.05;;
36191;SDS011;22233;42.708;23.360;2023-02-08T06:07:16;28.83;;;13.73;;
36191;SDS011;22233;42.708;23.360;2023-02-08T06:09:41;21.83;;;12.05;;
36191;SDS011;22233;42.708;23.360;2023-02-08T06:12:06;21.30;;;10.35;;
36191;SDS011;22233;42.708;23.360;2023-02-08T06:14:32;19.17;;;10.63;;
36191;SDS011;22233;42.708;23.360;2023-02-08T06:16:58;18.15;;;11.13;;
36191;SDS011;22233;42.708;23.360;2023-02-08T06:19:23;17.98;;;10.57;;
36191;SDS011;22233;42.708;23.360;2023-02-08T06:21:49;16.25;;;10.02;;
36191;SDS011;22233;42.708;23.360;2023-02-08T06:24:14;15.65;;;9.93;;
36191;SDS011;22233;42.708;23.360;2023-02-08T06:26:40;16.85;;;9.05;;
36191;SDS011;22233;42.708;23.360;2023-02-08T06:29:06;18.70;;;10.77;;
36191;SDS011;22233;42.708;23.360;2023-02-08T06:31:32;22.15;;;11.80;;
36191;SDS011;22233;42.708;23.360;2023-02-08T06:33:57;31.20;;;17.50;;
36191;SDS011;22233;42.708;23.360;2023-02-08T06:36:23;35.85;;;17.05;;
36191;SDS011;22233;42.708;23.360;2023-02-08T06:38:48;24.20;;;13.32;;
36191;SDS011;22233;42.708;23.360;2023-02-08T06:41:13;23.63;;;11.45;;
36191;SDS011;22233;42.708;23.360;2023-02-08T06:43:39;23.17;;;11.50;;
36191;SDS011;22233;42.708;23.360;2023-02-08T06:46:05;23.38;;;9.80;;
36191;SDS011;22233;42.708;23.360;2023-02-08T06:48:32;20.35;;;10.13;;
36191;SDS011;22233;42.708;23.360;2023-02-08T06:50:58;18.17;;;9.70;;
36191;SDS011;22233;42.708;23.360;2023-02-08T06:53:24;17.73;;;10.27;;
36191;SDS011;22233;42.708;23.360;2023-02-08T06:55:50;22.02;;;12.27;;
36191;SDS011;22233;42.708;23.360;2023-02-08T06:58:15;31.85;;;13.73;;
36191;SDS011;22233;42.708;23.360;2023-02-08T07:00:41;33.30;;;14.70;;
36191;SDS011;22233;42.708;23.360;2023-02-08T07:05:35;24.92;;;11.80;;
36191;SDS011;22233;42.708;23.360;2023-02-08T07:08:00;35.75;;;16.67;;
36191;SDS011;22233;42.708;23.360;2023-02-08T07:10:26;36.40;;;17.65;;
36191;SDS011;22233;42.708;23.360;2023-02-08T07:12:51;35.17;;;17.05;;
36191;SDS011;22233;42.708;23.360;2023-02-08T07:15:17;29.70;;;14.43;;
36191;SDS011;22233;42.708;23.360;2023-02-08T07:17:42;28.92;;;13.57;;
36191;SDS011;22233;42.708;23.360;2023-02-08T07:20:08;23.48;;;12.15;;
36191;SDS011;22233;42.708;23.360;2023-02-08T07:22:35;23.80;;;12.43;;
36191;SDS011;22233;42.708;23.360;2023-02-08T07:25:01;24.10;;;12.30;;
36191;SDS011;22233;42.708;23.360;2023-02-08T07:27:26;21.02;;;11.00;;
36191;SDS011;22233;42.708;23.360;2023-02-08T07:29:52;19.98;;;10.07;;
36191;SDS011;22233;42.708;23.360;2023-02-08T07:32:17;13.90;;;8.18;;
36191;SDS011;22233;42.708;23.360;2023-02-08T07:34:42;19.98;;;10.65;;
36191;SDS011;22233;42.708;23.360;2023-02-08T07:37:09;18.27;;;9.03;;
36191;SDS011;22233;42.708;23.360;2023-02-08T07:39:34;17.48;;;8.70;;
36191;SDS011;22233;42.708;23.360;2023-02-08T07:42:00;18.10;;;9.93;;
36191;SDS011;22233;42.708;23.360;2023-02-08T07:44:25;16.88;;;9.93;;
36191;SDS011;22233;42.708;23.360;2023-02-08T07:46:51;16.67;;;8.90;;
36191;SDS011;22233;42.708;23.360;2023-02-08T07:49:16;19.60;;;9.43;;
36191;SDS011;22233;42.708;23.360;2023-02-08T07:51:41;17.63;;;9.02;;
36191;SDS011;22233;42.708;23.360;2023-02-08T07:54:07;18.02;;;9.70;;
36191;SDS011;22233;42.708;23.360;2023-02-08T07:56:32;15.45;;;9.20;;
36191;SDS011;22233;42.708;23.360;2023-02-08T07:58:58;22.60;;;9.75;;
36191;SDS011;22233;42.708;23.360;2023-02-08T08:01:23;20.30;;;9.18;;
36191;SDS011;22233;42.708;23.360;2023-02-08T08:03:49;16.63;;;8.35;;
36191;SDS011;22233;42.708;23.360;2023-02-08T08:06:16;15.47;;;8.37;;
36191;SDS011;22233;42.708;23.360;2023-02-08T08:11:11;14.32;;;6.95;;
36191;SDS011;22233;42.708;23.360;2023-02-08T08:13:40;14.82;;;8.80;;
36191;SDS011;22233;42.708;23.360;2023-02-08T08:16:05;16.35;;;9.27;;
36191;SDS011;22233;42.708;23.360;2023-02-08T08:18:31;15.90;;;8.98;;
36191;SDS011;22233;42.708;23.360;2023-02-08T08:20:56;19.38;;;8.20;;
36191;SDS011;22233;42.708;23.360;2023-02-08T08:23:22;21.70;;;11.27;;
36191;SDS011;22233;42.708;23.360;2023-02-08T08:25:47;18.88;;;10.43;;
36191;SDS011;22233;42.708;23.360;2023-02-08T08:28:14;17.02;;;9.88;;
36191;SDS011;22233;42.708;23.360;2023-02-08T08:30:42;19.63;;;10.05;;
36191;SDS011;22233;42.708;23.360;2023-02-08T08:33:08;16.95;;;9.63;;
36191;SDS011;22233;42.708;23.360;2023-02-08T08:35:34;17.67;;;10.43;;
36191;SDS011;22233;42.708;23.360;2023-02-08T08:37:59;23.25;;;10.80;;
36191;SDS011;22233;42.708;23.360;2023-02-08T08:40:25;19.00;;;9.73;;
36191;SDS011;22233;42.708;23.360;2023-02-08T08:42:50;18.17;;;9.48;;
36191;SDS011;22233;42.708;23.360;2023-02-08T08:45:15;20.88;;;10.88;;
36191;SDS011;22233;42.708;23.360;2023-02-08T08:47:41;19.38;;;11.07;;
36191;SDS011;22233;42.708;23.360;2023-02-08T08:50:06;18.42;;;10.88;;
36191;SDS011;22233;42.708;23.360;2023-02-08T08:52:32;17.73;;;10.52;;
36191;SDS011;22233;42.708;23.360;2023-02-08T08:54:57;19.90;;;10.43;;
36191;SDS011;22233;42.708;23.360;2023-02-08T08:57:23;17.05;;;10.68;;
36191;SDS011;22233;42.708;23.360;2023-02-08T08:59:48;20.38;;;11.32;;
36191;SDS011;22233;42.708;23.360;2023-02-08T09:02:14;24.58;;;9.85;;
36191;SDS011;22233;42.708;23.360;2023-02-08T09:04:39;18.20;;;10.00;;
36191;SDS011;22233;42.708;23.360;2023-02-08T09:07:05;16.23;;;8.80;;
36191;SDS011;22233;42.708;23.360;2023-02-08T09:09:32;20.48;;;9.68;;
36191;SDS011;22233;42.708;23.360;2023-02-08T09:11:58;15.40;;;8.73;;
36191;SDS011;22233;42.708;23.360;2023-02-08T09:14:23;15.25;;;7.88;;
36191;SDS011;22233;42.708;23.360;2023-02-08T09:16:49;12.63;;;6.97;;
36191;SDS011;22233;42.708;23.360;2023-02-08T09:19:14;14.10;;;7.95;;
36191;SDS011;22233;42.708;23.360;2023-02-08T09:21:40;13.43;;;7.25;;
36191;SDS011;22233;42.708;23.360;2023-02-08T09:24:06;8.88;;;4.63;;
36191;SDS011;22233;42.708;23.360;2023-02-08T09:26:31;11.80;;;5.80;;
36191;SDS011;22233;42.708;23.360;2023-02-08T09:28:57;11.18;;;6.57;;
36191;SDS011;22233;42.708;23.360;2023-02-08T09:31:24;9.82;;;6.07;;
36191;SDS011;22233;42.708;23.360;2023-02-08T09:33:52;12.45;;;6.32;;
36191;SDS011;22233;42.708;23.360;2023-02-08T09:36:20;10.57;;;6.93;;
36191;SDS011;22233;42.708;23.360;2023-02-08T09:38:47;11.88;;;5.80;;
36191;SDS011;22233;42.708;23.360;2023-02-08T09:46:28;11.18;;;6.65;;
36191;SDS011;22233;42.708;23.360;2023-02-08T09:48:57;9.10;;;5.85;;
36191;SDS011;22233;42.708;23.360;2023-02-08T09:54:03;12.35;;;6.93;;
36191;SDS011;22233;42.708;23.360;2023-02-08T09:56:49;13.27;;;6.60;;
36191;SDS011;22233;42.708;23.360;2023-02-08T09:59:26;10.60;;;6.28;;
36191;SDS011;22233;42.708;23.360;2023-02-08T10:04:54;8.15;;;5.53;;
36191;SDS011;22233;42.708;23.360;2023-02-08T10:07:34;8.70;;;4.75;;
36191;SDS011;22233;42.708;23.360;2023-02-08T10:10:01;7.13;;;4.70;;
36191;SDS011;22233;42.708;23.360;2023-02-08T10:20:52;9.35;;;4.63;;
36191;SDS011;22233;42.708;23.360;2023-02-08T10:26:00;8.55;;;4.93;;
36191;SDS011;22233;42.708;23.360;2023-02-08T10:31:46;8.43;;;4.70;;
36191;SDS011;22233;42.708;23.360;2023-02-08T10:34:19;8.32;;;5.57;;
36191;SDS011;22233;42.708;23.360;2023-02-08T10:36:49;7.93;;;5.03;;
36191;SDS011;22233;42.708;23.360;2023-02-08T10:39:15;9.80;;;4.72;;
36191;SDS011;22233;42.708;23.360;2023-02-08T10:41:53;8.23;;;5.57;;
36191;SDS011;22233;42.708;23.360;2023-02-08T10:44:21;7.10;;;3.97;;
36191;SDS011;22233;42.708;23.360;2023-02-08T10:47:04;7.53;;;5.00;;
36191;SDS011;22233;42.708;23.360;2023-02-08T10:49:58;9.15;;;5.10;;
36191;SDS011;22233;42.708;23.360;2023-02-08T10:52:26;10.23;;;5.72;;
36191;SDS011;22233;42.708;23.360;2023-02-08T10:54:51;10.32;;;4.78;;
36191;SDS011;22233;42.708;23.360;2023-02-08T10:57:21;7.78;;;5.28;;
36191;SDS011;22233;42.708;23.360;2023-02-08T11:00:00;11.80;;;5.25;;
36191;SDS011;22233;42.708;23.360;2023-02-08T11:02:31;8.20;;;4.32;;
36191;SDS011;22233;42.708;23.360;2023-02-08T11:07:33;7.40;;;4.75;;
36191;SDS011;22233;42.708;23.360;2023-02-08T11:10:12;9.65;;;5.38;;
36191;SDS011;22233;42.708;23.360;2023-02-08T11:13:05;6.45;;;4.05;;
36191;SDS011;22233;42.708;23.360;2023-02-08T11:15:42;10.45;;;4.80;;
36191;SDS011;22233;42.708;23.360;2023-02-08T11:20:52;8.02;;;4.95;;
36191;SDS011;22233;42.708;23.360;2023-02-08T11:23:22;7.70;;;4.25;;
36191;SDS011;22233;42.708;23.360;2023-02-08T11:25:51;8.98;;;5.22;;
36191;SDS011;22233;42.708;23.360;2023-02-08T11:28:21;8.77;;;5.28;;
36191;SDS011;22233;42.708;23.360;2023-02-08T11:30:58;9.27;;;5.95;;
36191;SDS011;22233;42.708;23.360;2023-02-08T11:36:02;9.75;;;4.75;;
36191;SDS011;22233;42.708;23.360;2023-02-08T11:38:33;9.25;;;6.07;;
36191;SDS011;22233;42.708;23.360;2023-02-08T11:41:01;8.90;;;5.38;;
36191;SDS011;22233;42.708;23.360;2023-02-08T11:43:30;8.90;;;4.82;;
36191;SDS011;22233;42.708;23.360;2023-02-08T11:45:59;11.05;;;5.05;;
36191;SDS011;22233;42.708;23.360;2023-02-08T11:50:59;9.57;;;5.95;;
36191;SDS011;22233;42.708;23.360;2023-02-08T11:53:31;9.23;;;5.40;;
36191;SDS011;22233;42.708;23.360;2023-02-08T11:58:27;9.20;;;5.68;;
36191;SDS011;22233;42.708;23.360;2023-02-08T12:01:03;8.57;;;5.28;;
36191;SDS011;22233;42.708;23.360;2023-02-08T12:03:37;9.57;;;4.40;;
36191;SDS011;22233;42.708;23.360;2023-02-08T12:19:50;5.93;;;3.70;;
36191;SDS011;22233;42.708;23.360;2023-02-08T12:22:27;6.90;;;4.60;;
36191;SDS011;22233;42.708;23.360;2023-02-08T12:27:57;6.97;;;3.53;;
36191;SDS011;22233;42.708;23.360;2023-02-08T12:36:14;6.63;;;3.80;;
36191;SDS011;22233;42.708;23.360;2023-02-08T12:41:35;5.25;;;2.97;;
36191;SDS011;22233;42.708;23.360;2023-02-08T12:54:48;5.25;;;3.08;;
36191;SDS011;22233;42.708;23.360;2023-02-08T12:57:15;4.68;;;2.90;;
36191;SDS011;22233;42.708;23.360;2023-02-08T12:59:46;5.10;;;3.03;;
36191;SDS011;22233;42.708;23.360;2023-02-08T13:05:10;4.78;;;3.00;;
36191;SDS011;22233;42.708;23.360;2023-02-08T13:07:42;5.60;;;2.80;;
36191;SDS011;22233;42.708;23.360;2023-02-08T13:12:54;4.07;;;2.70;;
36191;SDS011;22233;42.708;23.360;2023-02-08T13:15:26;5.13;;;2.80;;
36191;SDS011;22233;42.708;23.360;2023-02-08T13:25:40;4.93;;;3.38;;
36191;SDS011;22233;42.708;23.360;2023-02-08T13:28:11;5.13;;;3.25;;
36191;SDS011;22233;42.708;23.360;2023-02-08T13:30:43;4.88;;;3.10;;
36191;SDS011;22233;42.708;23.360;2023-02-08T13:33:17;7.50;;;4.00;;
36191;SDS011;22233;42.708;23.360;2023-02-08T13:35:51;6.25;;;4.35;;
36191;SDS011;22233;42.708;23.360;2023-02-08T13:38:21;7.18;;;3.70;;
36191;SDS011;22233;42.708;23.360;2023-02-08T13:43:42;5.80;;;3.33;;
36191;SDS011;22233;42.708;23.360;2023-02-08T13:46:13;6.93;;;3.50;;
36191;SDS011;22233;42.708;23.360;2023-02-08T13:48:45;5.38;;;3.03;;
36191;SDS011;22233;42.708;23.360;2023-02-08T13:59:23;5.32;;;3.13;;
36191;SDS011;22233;42.708;23.360;2023-02-08T14:04:44;7.32;;;3.72;;
36191;SDS011;22233;42.708;23.360;2023-02-08T14:07:13;5.90;;;3.53;;
36191;SDS011;22233;42.708;23.360;2023-02-08T14:09:56;5.60;;;3.57;;
36191;SDS011;22233;42.708;23.360;2023-02-08T14:15:44;6.22;;;3.60;;
36191;SDS011;22233;42.708;23.360;2023-02-08T14:18:21;7.05;;;3.88;;
36191;SDS011;22233;42.708;23.360;2023-02-08T14:20:58;6.18;;;4.03;;
36191;SDS011;22233;42.708;23.360;2023-02-08T14:23:26;6.85;;;3.90;;
36191;SDS011;22233;42.708;23.360;2023-02-08T14:25:57;7.55;;;4.07;;
36191;SDS011;22233;42.708;23.360;2023-02-08T14:28:34;6.40;;;3.80;;
36191;SDS011;22233;42.708;23.360;2023-02-08T14:31:06;7.88;;;4.30;;
36191;SDS011;22233;42.708;23.360;2023-02-08T14:33:34;7.03;;;3.45;;
36191;SDS011;22233;42.708;23.360;2023-02-08T14:36:06;5.88;;;3.72;;
36191;SDS011;22233;42.708;23.360;2023-02-08T14:38:50;5.80;;;3.72;;
36191;SDS011;22233;42.708;23.360;2023-02-08T14:49:57;8.05;;;3.90;;
36191;SDS011;22233;42.708;23.360;2023-02-08T14:52:29;7.78;;;4.50;;
36191;SDS011;22233;42.708;23.360;2023-02-08T14:57:29;7.22;;;3.65;;
36191;SDS011;22233;42.708;23.360;2023-02-08T14:59:59;7.43;;;3.72;;
36191;SDS011;22233;42.708;23.360;2023-02-08T15:02:26;5.50;;;3.72;;
36191;SDS011;22233;42.708;23.360;2023-02-08T15:04:59;7.55;;;4.00;;
36191;SDS011;22233;42.708;23.360;2023-02-08T15:10:27;5.22;;;3.20;;
36191;SDS011;22233;42.708;23.360;2023-02-08T15:12:58;6.43;;;3.70;;
36191;SDS011;22233;42.708;23.360;2023-02-08T15:17:56;8.32;;;4.28;;
36191;SDS011;22233;42.708;23.360;2023-02-08T15:20:24;7.75;;;3.45;;
36191;SDS011;22233;42.708;23.360;2023-02-08T15:25:30;5.18;;;3.55;;
36191;SDS011;22233;42.708;23.360;2023-02-08T15:28:01;5.80;;;3.22;;
36191;SDS011;22233;42.708;23.360;2023-02-08T15:30:33;5.38;;;3.60;;
36191;SDS011;22233;42.708;23.360;2023-02-08T15:33:01;5.65;;;3.88;;
36191;SDS011;22233;42.708;23.360;2023-02-08T15:35:32;6.10;;;3.53;;
36191;SDS011;22233;42.708;23.360;2023-02-08T15:37:59;5.63;;;3.88;;
36191;SDS011;22233;42.708;23.360;2023-02-08T15:40:30;4.57;;;3.33;;
36191;SDS011;22233;42.708;23.360;2023-02-08T15:43:10;5.25;;;3.03;;
36191;SDS011;22233;42.708;23.360;2023-02-08T15:45:37;6.03;;;3.70;;
36191;SDS011;22233;42.708;23.360;2023-02-08T15:48:03;6.13;;;3.40;;
36191;SDS011;22233;42.708;23.360;2023-02-08T15:50:30;8.13;;;4.30;;
36191;SDS011;22233;42.708;23.360;2023-02-08T15:52:58;6.80;;;3.97;;
36191;SDS011;22233;42.708;23.360;2023-02-08T15:55:26;6.32;;;3.88;;
36191;SDS011;22233;42.708;23.360;2023-02-08T16:00:24;7.35;;;3.70;;
36191;SDS011;22233;42.708;23.360;2023-02-08T16:02:58;6.15;;;3.85;;
36191;SDS011;22233;42.708;23.360;2023-02-08T16:05:26;5.95;;;3.97;;
36191;SDS011;22233;42.708;23.360;2023-02-08T16:07:53;8.00;;;4.03;;
36191;SDS011;22233;42.708;23.360;2023-02-08T16:15:41;8.05;;;3.55;;
36191;SDS011;22233;42.708;23.360;2023-02-08T16:21:00;5.53;;;3.78;;
36191;SDS011;22233;42.708;23.360;2023-02-08T16:23:29;4.68;;;3.20;;
36191;SDS011;22233;42.708;23.360;2023-02-08T16:25:57;5.15;;;3.33;;
36191;SDS011;22233;42.708;23.360;2023-02-08T16:28:35;6.22;;;3.25;;
36191;SDS011;22233;42.708;23.360;2023-02-08T16:31:01;6.20;;;3.78;;
36191;SDS011;22233;42.708;23.360;2023-02-08T16:33:28;6.80;;;3.85;;
36191;SDS011;22233;42.708;23.360;2023-02-08T16:35:54;7.73;;;3.70;;
36191;SDS011;22233;42.708;23.360;2023-02-08T16:38:27;5.78;;;3.28;;
36191;SDS011;22233;42.708;23.360;2023-02-08T16:40:55;6.38;;;3.95;;
36191;SDS011;22233;42.708;23.360;2023-02-08T16:43:36;5.45;;;3.60;;
36191;SDS011;22233;42.708;23.360;2023-02-08T16:48:33;4.97;;;3.53;;
36191;SDS011;22233;42.708;23.360;2023-02-08T16:51:01;7.75;;;4.55;;
36191;SDS011;22233;42.708;23.360;2023-02-08T16:53:28;6.78;;;3.83;;
36191;SDS011;22233;42.708;23.360;2023-02-08T16:55:55;6.65;;;3.92;;
36191;SDS011;22233;42.708;23.360;2023-02-08T16:58:21;6.50;;;3.85;;
36191;SDS011;22233;42.708;23.360;2023-02-08T17:00:47;7.70;;;3.97;;
36191;SDS011;22233;42.708;23.360;2023-02-08T17:03:13;6.63;;;5.18;;
36191;SDS011;22233;42.708;23.360;2023-02-08T17:05:38;6.68;;;3.85;;
36191;SDS011;22233;42.708;23.360;2023-02-08T17:08:10;13.10;;;5.70;;
36191;SDS011;22233;42.708;23.360;2023-02-08T17:10:39;7.55;;;4.78;;
36191;SDS011;22233;42.708;23.360;2023-02-08T17:13:05;6.15;;;3.95;;
36191;SDS011;22233;42.708;23.360;2023-02-08T17:15:30;6.53;;;3.97;;
36191;SDS011;22233;42.708;23.360;2023-02-08T17:17:56;6.05;;;4.15;;
36191;SDS011;22233;42.708;23.360;2023-02-08T17:20:25;5.47;;;4.07;;
36191;SDS011;22233;42.708;23.360;2023-02-08T17:22:53;6.72;;;4.50;;
36191;SDS011;22233;42.708;23.360;2023-02-08T17:25:22;5.50;;;4.38;;
36191;SDS011;22233;42.708;23.360;2023-02-08T17:27:49;7.43;;;4.45;;
36191;SDS011;22233;42.708;23.360;2023-02-08T17:30:37;9.57;;;4.65;;
36191;SDS011;22233;42.708;23.360;2023-02-08T17:33:05;9.38;;;4.88;;
36191;SDS011;22233;42.708;23.360;2023-02-08T17:35:32;12.35;;;6.65;;
36191;SDS011;22233;42.708;23.360;2023-02-08T17:37:58;12.57;;;6.03;;
36191;SDS011;22233;42.708;23.360;2023-02-08T17:40:25;9.43;;;4.82;;
36191;SDS011;22233;42.708;23.360;2023-02-08T17:42:59;8.77;;;4.50;;
36191;SDS011;22233;42.708;23.360;2023-02-08T17:45:25;8.13;;;4.85;;
36191;SDS011;22233;42.708;23.360;2023-02-08T17:47:51;7.50;;;4.13;;
36191;SDS011;22233;42.708;23.360;2023-02-08T17:50:17;5.82;;;3.53;;